Time;durP1;ratioP1;P1;durP2;ratioP2;P2;SDS_P1;SDS_P2;PMS_P1;PMS_P2;Temp;Humidity;BMP_temperature;BMP_pressure;BME280_temperature;BME280_humidity;BME280_pressure;Samples;Min_cycle;Max_cycle;Signal;HPM_P1;HPM_P2
2020/12/23 00:01:27;;;;;;;1.20;1.05;;;;;;;1.26;77.51;93190.15;1770743;79;21214;-82
2020/12/23 00:03:56;;;;;;;1.47;1.37;;;;;;;1.27;77.33;93196.28;1756029;79;21614;-84
2020/12/23 00:06:37;;;;;;;0.78;0.78;;;;;;;1.27;77.33;93202.41;1734311;80;21166;-76
2020/12/23 00:09:05;;;;;;;1.00;0.90;;;;;;;1.28;77.14;93195.95;1717750;80;21170;-81
2020/12/23 00:11:34;;;;;;;2.33;1.20;;;;;;;1.28;76.84;93191.94;1711864;82;21159;-78
2020/12/23 00:14:02;;;;;;;1.85;1.57;;;;;;;1.29;77.38;93200.19;1782265;79;21397;-83
2020/12/23 00:16:30;;;;;;;1.65;1.10;;;;;;;1.29;77.72;93204.20;1781755;79;21202;-75
2020/12/23 00:18:58;;;;;;;1.40;1.30;;;;;;;1.27;77.93;93207.00;1785589;78;21047;-82
2020/12/23 00:21:27;;;;;;;1.50;1.40;;;;;;;1.23;78.84;93207.46;1812119;78;21145;-77
2020/12/23 00:23:55;;;;;;;1.35;1.12;;;;;;;1.17;79.22;93217.09;1814807;78;21181;-83
2020/12/23 00:26:23;;;;;;;1.00;0.80;;;;;;;1.13;79.67;93214.06;1810259;77;21598;-82
2020/12/23 00:28:51;;;;;;;2.15;1.60;;;;;;;1.04;80.25;93212.88;1802982;78;21157;-79
2020/12/23 00:31:19;;;;;;;2.60;1.82;;;;;;;1.00;80.70;93213.34;1746142;80;21204;-81
2020/12/23 00:33:48;;;;;;;2.58;1.87;;;;;;;0.94;81.23;93209.33;1802133;78;21590;-79
2020/12/23 00:36:16;;;;;;;1.20;1.10;;;;;;;0.91;82.04;93214.83;1814593;78;21284;-82
2020/12/23 00:38:44;;;;;;;1.85;0.98;;;;;;;0.88;82.12;93224.87;1789591;78;21626;-81
2020/12/23 00:41:12;;;;;;;0.93;0.93;;;;;;;0.85;82.41;93218.84;1780576;79;21491;-77
2020/12/23 00:43:41;;;;;;;1.22;1.02;;;;;;;0.79;82.60;93218.88;1786120;78;21186;-84
2020/12/23 00:46:13;;;;;;;1.60;1.25;;;;;;;0.79;83.19;93219.41;1795793;78;21165;-78
2020/12/23 00:48:42;;;;;;;0.78;0.62;;;;;;;0.79;83.16;93219.41;1814096;78;21277;-83
2020/12/23 00:51:14;;;;;;;1.05;0.95;;;;;;;0.79;83.39;93228.78;1734468;80;21205;-77
2020/12/23 00:53:43;;;;;;;1.37;1.05;;;;;;;0.75;83.49;93227.90;1765858;80;21497;-83
2020/12/23 00:56:13;;;;;;;1.20;1.05;;;;;;;0.73;83.55;93233.04;1769649;79;21058;-82
2020/12/23 00:58:41;;;;;;;1.32;1.07;;;;;;;0.74;83.83;93228.46;1715814;81;21294;-81
2020/12/23 01:01:10;;;;;;;0.85;0.78;;;;;;;0.73;83.94;93234.94;1778352;78;21797;-79
2020/12/23 01:03:40;;;;;;;0.50;0.50;;;;;;;0.71;84.10;93229.12;1775519;79;21359;-81
2020/12/23 01:06:08;;;;;;;1.30;1.20;;;;;;;0.69;84.75;93230.05;1756562;78;21221;-80
2020/12/23 01:08:37;;;;;;;1.15;0.93;;;;;;;0.62;84.78;93216.45;1735527;80;21766;-84
2020/12/23 01:11:06;;;;;;;1.10;0.82;;;;;;;0.59;85.33;93219.23;1769698;79;21194;-83
2020/12/23 01:13:35;;;;;;;7.67;3.92;;;;;;;0.58;85.67;93215.56;1769361;79;21254;-81
2020/12/23 01:16:03;;;;;;;3.50;2.35;;;;;;;0.51;86.07;93224.16;1758527;80;21313;-77
2020/12/23 01:18:31;;;;;;;1.40;1.10;;;;;;;0.48;86.22;93224.81;1777571;80;21250;-81
2020/12/23 01:20:59;;;;;;;2.87;1.50;;;;;;;0.50;86.11;93216.47;1780817;79;21158;-85
2020/12/23 01:23:28;;;;;;;2.47;1.37;;;;;;;0.53;86.35;93221.12;1796938;78;21039;-80
2020/12/23 01:25:56;;;;;;;1.17;1.07;;;;;;;0.53;86.25;93221.12;1808922;78;21198;-83
2020/12/23 01:28:24;;;;;;;0.93;0.90;;;;;;;0.54;86.26;93219.47;1810240;78;21581;-84
2020/12/23 01:30:52;;;;;;;0.75;0.75;;;;;;;0.57;86.10;93216.69;1778578;79;21488;-77
2020/12/23 01:33:20;;;;;;;1.55;1.25;;;;;;;0.58;86.21;93215.56;1812440;78;21050;-80
2020/12/23 01:35:51;;;;;;;3.92;2.27;;;;;;;0.57;86.32;93211.34;1793153;78;21225;-81
2020/12/23 01:38:19;;;;;;;4.22;2.75;;;;;;;0.57;86.54;93210.77;1763357;79;21166;-80
2020/12/23 01:40:47;;;;;;;7.65;4.80;;;;;;;0.57;86.33;93206.77;1750295;78;21366;-79
2020/12/23 01:43:15;;;;;;;0.98;0.80;;;;;;;0.57;86.49;93204.09;1732111;81;21245;-80
2020/12/23 01:45:43;;;;;;;1.50;1.00;;;;;;;0.57;86.28;93204.09;1717139;80;21234;-77
2020/12/23 01:48:21;;;;;;;0.70;0.70;;;;;;;0.58;86.03;93219.58;1741681;79;21270;-81
2020/12/23 01:50:49;;;;;;;1.75;1.40;;;;;;;0.61;85.83;93212.22;1778660;79;21079;-77
2020/12/23 01:53:17;;;;;;;2.98;1.62;;;;;;;0.62;85.75;93211.88;1784099;79;21154;-82
2020/12/23 01:55:46;;;;;;;0.93;0.68;;;;;;;0.64;85.46;93215.00;1784720;78;21308;-79
2020/12/23 01:58:14;;;;;;;6.45;3.50;;;;;;;0.67;85.45;93210.29;1810162;78;21172;-80
2020/12/23 02:00:42;;;;;;;1.95;1.45;;;;;;;0.69;85.78;93216.10;1810552;78;21249;-80
2020/12/23 02:03:12;;;;;;;1.30;1.10;;;;;;;0.70;85.77;93209.63;1805113;78;21624;-81
2020/12/23 02:05:41;;;;;;;3.37;2.55;;;;;;;0.70;85.57;93200.81;1812443;78;21355;-79
2020/12/23 02:08:09;;;;;;;1.82;1.50;;;;;;;0.65;86.19;93200.50;1744296;80;21146;-85
2020/12/23 02:10:39;;;;;;;1.62;1.37;;;;;;;0.63;86.23;93203.28;1759172;79;21242;-83
2020/12/23 02:13:09;;;;;;;3.25;1.72;;;;;;;0.61;86.35;93194.27;1783580;79;21174;-79
2020/12/23 02:15:38;;;;;;;1.75;1.50;;;;;;;0.59;86.52;93195.71;1737484;79;21279;-76
2020/12/23 02:18:06;;;;;;;3.27;2.00;;;;;;;0.60;86.71;93197.26;1759017;78;21238;-82
2020/12/23 02:20:34;;;;;;;1.25;1.15;;;;;;;0.59;86.64;93191.70;1774895;78;21185;-84
2020/12/23 02:23:02;;;;;;;2.92;1.60;;;;;;;0.61;86.12;93197.50;1736380;80;21291;-83
2020/12/23 02:25:30;;;;;;;1.40;1.30;;;;;;;0.64;86.44;93194.13;1759163;80;21507;-87
2020/12/23 02:27:58;;;;;;;1.02;1.00;;;;;;;0.65;85.79;93198.38;1755314;79;21218;-81
2020/12/23 02:30:27;;;;;;;3.58;2.75;;;;;;;0.68;85.89;93197.72;1701527;81;21190;-82
2020/12/23 02:32:55;;;;;;;11.35;6.50;;;;;;;0.70;86.32;93203.49;1713574;80;21318;-85
2020/12/23 02:35:23;;;;;;;13.18;7.97;;;;;;;0.69;86.51;93204.62;1745831;80;21187;-83
2020/12/23 02:37:51;;;;;;;5.65;3.92;;;;;;;0.63;87.30;93206.73;1753734;80;21672;-83
2020/12/23 02:40:19;;;;;;;3.10;2.20;;;;;;;0.55;87.43;93195.60;1768886;78;21158;-81
2020/12/23 02:42:47;;;;;;;2.20;1.77;;;;;;;0.54;87.27;93199.41;1791292;78;21573;-81
2020/12/23 02:45:16;;;;;;;2.00;1.80;;;;;;;0.57;87.28;93205.98;1768418;78;21178;-79
2020/12/23 02:47:45;;;;;;;1.70;1.30;;;;;;;0.59;87.33;93209.09;1777447;79;21131;-84
2020/12/23 02:50:13;;;;;;;2.83;2.10;;;;;;;0.60;87.30;93200.74;1774378;79;21692;-86
2020/12/23 02:52:41;;;;;;;1.75;1.40;;;;;;;0.60;87.15;93195.39;1747252;79;21222;-82
2020/12/23 02:55:09;;;;;;;2.77;1.75;;;;;;;0.61;86.84;93194.83;1734317;81;21139;-84
2020/12/23 02:57:38;;;;;;;1.70;1.07;;;;;;;0.64;87.03;93204.83;1783030;78;21173;-84
2020/12/23 03:00:06;;;;;;;1.05;0.88;;;;;;;0.63;86.75;93205.39;1785946;78;21301;-81
2020/12/23 03:02:34;;;;;;;2.58;2.08;;;;;;;0.65;86.32;93215.22;1785889;78;21262;-81
2020/12/23 03:05:02;;;;;;;2.52;2.00;;;;;;;0.69;86.83;93207.30;1788225;78;21154;-82
2020/12/23 03:07:32;;;;;;;1.95;1.50;;;;;;;0.67;86.45;93197.47;1780359;79;22504;-84
2020/12/23 03:10:02;;;;;;;1.10;1.00;;;;;;;0.69;86.25;93200.61;1771297;79;21772;-84
2020/12/23 03:12:31;;;;;;;1.20;1.10;;;;;;;0.73;85.42;93194.80;1727110;80;21151;-82
2020/12/23 03:14:59;;;;;;;2.00;1.07;;;;;;;0.79;84.75;93192.11;1738025;81;21253;-78
2020/12/23 03:17:27;;;;;;;2.92;1.98;;;;;;;0.85;84.56;93203.34;1739324;80;21626;-82
2020/12/23 03:19:56;;;;;;;2.77;2.02;;;;;;;0.88;84.83;93212.82;1728849;80;21201;-82
2020/12/23 03:22:24;;;;;;;1.12;0.75;;;;;;;0.88;84.38;93210.14;1732038;80;21143;-84
2020/12/23 03:24:52;;;;;;;1.10;0.95;;;;;;;0.93;83.80;93201.09;1785058;78;21241;-87
2020/12/23 03:27:20;;;;;;;2.12;1.60;;;;;;;0.98;83.26;93211.58;1778626;78;22285;-84
2020/12/23 03:29:48;;;;;;;15.95;8.48;;;;;;;1.02;83.63;93207.66;1772748;79;21051;-80
2020/12/23 03:32:17;;;;;;;2.08;1.57;;;;;;;1.05;84.12;93215.00;1812006;78;21261;-83
2020/12/23 03:34:45;;;;;;;1.00;0.90;;;;;;;1.03;83.04;93218.02;1813898;78;21114;-79
2020/12/23 03:37:13;;;;;;;1.00;0.90;;;;;;;1.05;82.79;93218.45;1782351;79;21079;-81
2020/12/23 03:39:42;;;;;;;0.82;0.82;;;;;;;1.10;81.99;93211.53;1777551;79;21277;-83
2020/12/23 03:42:10;;;;;;;1.05;0.88;;;;;;;1.15;82.33;93216.64;1783400;79;21205;-80
2020/12/23 03:44:38;;;;;;;3.95;2.00;;;;;;;1.16;81.75;93212.83;1782910;79;21134;-77
2020/12/23 03:47:07;;;;;;;2.22;1.20;;;;;;;1.17;82.31;93225.13;1738969;80;21689;-83
2020/12/23 03:49:35;;;;;;;1.27;1.17;;;;;;;1.17;81.74;93217.66;1766550;79;21261;-84
2020/12/23 03:52:03;;;;;;;1.45;1.35;;;;;;;1.19;81.88;93213.50;1782411;78;21206;-80
2020/12/23 03:54:32;;;;;;;2.05;1.00;;;;;;;1.19;81.93;93220.75;1795658;78;21063;-83
2020/12/23 03:57:00;;;;;;;1.40;1.30;;;;;;;1.20;81.85;93231.14;1765282;78;21151;-83
2020/12/23 03:59:29;;;;;;;1.85;1.50;;;;;;;1.19;81.83;93217.52;1747269;79;21872;-83
2020/12/23 04:01:57;;;;;;;1.50;1.20;;;;;;;1.18;82.72;93223.22;1770594;78;21099;-83
2020/12/23 04:04:25;;;;;;;1.45;0.95;;;;;;;1.11;82.47;93213.08;1812815;78;21428;-82
2020/12/23 04:06:53;;;;;;;1.57;1.27;;;;;;;1.11;82.38;93222.45;1813939;78;21050;-80
2020/12/23 04:09:21;;;;;;;2.30;2.12;;;;;;;1.13;82.53;93213.53;1799957;78;21229;-87
2020/12/23 04:11:49;;;;;;;2.22;1.45;;;;;;;1.16;82.90;93237.50;1786892;78;21231;-80
2020/12/23 04:14:17;;;;;;;1.30;1.10;;;;;;;1.12;82.56;93218.65;1787862;79;21183;-75
2020/12/23 04:16:46;;;;;;;1.27;1.12;;;;;;;1.12;82.54;93225.34;1779250;79;21211;-82
2020/12/23 04:19:14;;;;;;;1.95;1.12;;;;;;;1.13;82.62;93233.63;1778150;79;21600;-80
2020/12/23 04:21:42;;;;;;;0.80;0.80;;;;;;;1.13;82.23;93237.64;1778624;79;21181;-89
2020/12/23 04:24:10;;;;;;;1.12;1.02;;;;;;;1.15;82.50;93238.06;1788799;78;22037;-85
2020/12/23 04:26:38;;;;;;;2.90;1.72;;;;;;;1.16;82.70;93246.31;1791914;79;21944;-85
2020/12/23 04:29:06;;;;;;;1.77;1.65;;;;;;;1.13;83.25;93244.34;1764247;79;21068;-81
2020/12/23 04:31:34;;;;;;;1.20;1.10;;;;;;;1.10;83.01;93251.70;1775602;80;21475;-81
2020/12/23 04:34:03;;;;;;;1.02;0.90;;;;;;;1.09;82.77;93242.12;1771919;78;21304;-84
2020/12/23 04:36:31;;;;;;;3.08;1.85;;;;;;;1.12;82.85;93239.30;1786456;78;21243;-85
2020/12/23 04:38:59;;;;;;;1.37;1.10;;;;;;;1.12;83.01;93237.39;1768697;79;21071;-82
2020/12/23 04:41:28;;;;;;;1.02;0.80;;;;;;;1.14;82.79;93249.91;1781423;79;21090;-79
2020/12/23 04:43:56;;;;;;;1.37;1.27;;;;;;;1.16;82.48;93240.17;1789245;79;21226;-76
2020/12/23 04:46:31;;;;;;;1.47;1.07;;;;;;;1.18;82.33;93235.27;1734921;79;21802;-81
2020/12/23 04:49:02;;;;;;;19.12;8.25;;;;;;;1.21;82.52;93225.22;1771697;79;21653;-81
2020/12/23 04:51:32;;;;;;;5.67;3.15;;;;;;;1.21;83.67;93244.75;1770496;79;21326;-81
2020/12/23 04:54:01;;;;;;;2.47;1.52;;;;;;;1.15;82.99;93222.55;1731813;81;21747;-82
2020/12/23 04:56:31;;;;;;;1.65;1.50;;;;;;;1.14;83.16;93215.09;1759477;79;21643;-83
2020/12/23 04:59:00;;;;;;;5.20;3.27;;;;;;;1.18;82.94;93222.66;1775240;79;22641;-82
2020/12/23 05:01:28;;;;;;;2.37;1.67;;;;;;;1.24;83.30;93225.86;1742147;80;21075;-80
2020/12/23 05:03:56;;;;;;;1.87;1.77;;;;;;;1.23;83.15;93216.84;1761656;80;21212;-82
2020/12/23 05:06:24;;;;;;;1.40;1.30;;;;;;;1.19;83.14;93221.53;1761868;78;21057;-85
2020/12/23 05:08:52;;;;;;;2.27;1.57;;;;;;;1.19;83.20;93227.45;1767458;78;21398;-79
2020/12/23 05:11:21;;;;;;;1.12;1.00;;;;;;;1.17;83.22;93235.84;1754960;80;21388;-78
2020/12/23 05:13:50;;;;;;;3.25;2.35;;;;;;;1.18;83.33;93225.34;1742280;80;21115;-77
2020/12/23 05:16:23;;;;;;;4.95;2.92;;;;;;;1.20;83.83;93230.34;1775437;79;21217;-83
2020/12/23 05:18:57;;;;;;;1.67;1.45;;;;;;;1.18;83.78;93231.25;1755022;79;21167;-79
2020/12/23 05:21:25;;;;;;;1.67;1.12;;;;;;;1.17;83.63;93229.14;1785001;79;21035;-78
2020/12/23 05:23:57;;;;;;;1.92;1.72;;;;;;;1.19;83.38;93230.91;1781041;79;22165;-82
2020/12/23 05:26:26;;;;;;;11.10;5.33;;;;;;;1.23;83.44;93226.21;1780439;78;21161;-83
2020/12/23 05:28:54;;;;;;;10.20;6.58;;;;;;;1.26;84.19;93238.93;1785738;79;21063;-81
2020/12/23 05:31:25;;;;;;;1.55;1.45;;;;;;;1.21;84.00;93248.77;1741096;80;21269;-78
2020/12/23 05:33:55;;;;;;;4.40;3.17;;;;;;;1.20;83.17;93236.50;1788274;77;21158;-82
2020/12/23 05:36:25;;;;;;;2.33;2.12;;;;;;;1.26;83.38;93237.02;1752931;79;21429;-77
2020/12/23 05:39:00;;;;;;;1.77;1.67;;;;;;;1.31;83.16;93219.36;1747940;78;21137;-77
2020/12/23 05:41:30;;;;;;;4.40;2.80;;;;;;;1.30;83.39;93239.80;1777755;79;21149;-78
2020/12/23 05:43:59;;;;;;;1.57;1.40;;;;;;;1.27;83.31;93235.13;1795497;78;21699;-80
2020/12/23 05:46:27;;;;;;;2.37;1.95;;;;;;;1.27;82.68;93226.52;1799813;78;21246;-83
2020/12/23 05:48:56;;;;;;;6.47;4.08;;;;;;;1.34;83.00;93216.00;1812943;77;21296;-82
2020/12/23 05:51:24;;;;;;;11.05;6.10;;;;;;;1.34;83.38;93224.04;1819115;78;21118;-83
2020/12/23 05:53:52;;;;;;;4.53;2.92;;;;;;;1.27;84.08;93227.86;1820705;78;21067;-80
2020/12/23 05:56:20;;;;;;;3.55;2.33;;;;;;;1.20;84.37;93230.34;1765928;78;21763;-88
2020/12/23 05:58:48;;;;;;;3.40;2.55;;;;;;;1.18;84.29;93243.31;1760907;79;21059;-80
2020/12/23 06:01:17;;;;;;;4.28;2.75;;;;;;;1.19;84.74;93242.95;1747693;80;21284;-81
2020/12/23 06:03:57;;;;;;;4.87;3.05;;;;;;;1.17;84.93;93244.44;1757851;79;21808;-80
2020/12/23 06:06:27;;;;;;;2.65;2.10;;;;;;;1.14;84.85;93241.09;1748022;79;21270;-84
2020/12/23 06:08:57;;;;;;;3.30;2.45;;;;;;;1.19;84.68;93248.87;1728898;81;21179;-82
2020/12/23 06:11:47;;;;;;;3.00;2.50;;;;;;;1.22;84.45;93242.84;1802157;78;21271;-77
2020/12/23 06:14:25;;;;;;;4.17;3.20;;;;;;;1.25;84.46;93244.85;1798294;78;21366;-83
2020/12/23 06:17:02;;;;;;;5.25;3.47;;;;;;;1.28;84.43;93255.42;1806821;78;21675;-82
2020/12/23 06:19:36;;;;;;;3.33;2.65;;;;;;;1.27;84.40;93255.21;1816380;78;21281;-82
2020/12/23 06:22:06;;;;;;;2.70;2.35;;;;;;;1.25;84.51;93251.55;1821123;78;21261;-79
2020/12/23 06:24:34;;;;;;;2.65;2.40;;;;;;;1.24;84.25;93264.70;1818061;78;21142;-80
2020/12/23 06:27:06;;;;;;;2.90;2.65;;;;;;;1.23;84.44;93257.79;1814693;78;21428;-80
2020/12/23 06:29:42;;;;;;;2.58;2.37;;;;;;;1.24;84.53;93255.33;1725082;80;21236;-83
2020/12/23 06:32:24;;;;;;;2.65;2.10;;;;;;;1.26;84.43;93256.34;1774549;79;21744;-81
2020/12/23 06:35:00;;;;;;;2.67;2.08;;;;;;;1.28;84.38;93255.42;1769145;80;21724;-80
2020/12/23 06:37:33;;;;;;;46.98;20.82;;;;;;;1.30;84.71;93259.90;1749072;79;21222;-83
2020/12/23 06:40:11;;;;;;;16.82;9.05;;;;;;;1.32;84.33;93259.78;1752434;78;48898;-83
2020/12/23 06:42:46;;;;;;;11.88;6.45;;;;;;;1.33;84.52;93265.92;1780196;78;21206;-76
2020/12/23 06:45:15;;;;;;;4.03;3.10;;;;;;;1.36;84.63;93251.84;1758687;79;21259;-80
2020/12/23 06:47:44;;;;;;;4.00;2.87;;;;;;;1.37;84.75;93245.36;1787559;78;22258;-77
2020/12/23 06:50:29;;;;;;;2.25;2.05;;;;;;;1.36;84.77;93241.13;1719244;80;21647;-82
2020/12/23 06:52:57;;;;;;;2.15;1.70;;;;;;;1.35;84.75;93239.55;1773827;78;21207;-83
2020/12/23 06:55:43;;;;;;;7.30;5.22;;;;;;;1.37;84.54;93248.81;1787992;78;21614;-78
2020/12/23 06:58:31;;;;;;;;;;;;;;;1.39;84.40;93257.30;1780576;78;21288;-78
2020/12/23 07:01:20;;;;;;;9.03;6.37;;;;;;;1.40;84.30;93264.22;1759334;79;20223;-82
2020/12/23 07:03:48;;;;;;;10.72;7.03;;;;;;;1.39;84.41;93271.23;1797640;78;21187;-79
2020/12/23 07:06:34;;;;;;;6.12;3.55;;;;;;;1.40;84.47;93264.78;1775307;79;21407;-78
2020/12/23 07:09:04;;;;;;;3.57;2.87;;;;;;;1.45;84.32;93273.34;1757908;80;21197;-78
2020/12/23 07:11:36;;;;;;;4.62;2.80;;;;;;;1.49;84.05;93274.00;1756138;79;21375;-77
2020/12/23 07:14:05;;;;;;;3.90;3.08;;;;;;;1.52;83.70;93268.74;1766322;79;21150;-81
2020/12/23 07:16:40;;;;;;;6.05;4.55;;;;;;;1.56;83.64;93283.02;1781363;79;21194;-77
2020/12/23 07:19:09;;;;;;;5.80;3.65;;;;;;;1.61;83.49;93277.41;1753153;80;21702;-79
2020/12/23 07:21:37;;;;;;;23.15;9.23;;;;;;;1.62;83.20;93258.88;1731435;81;21557;-83
2020/12/23 07:24:06;;;;;;;7.28;4.08;;;;;;;1.64;83.68;93267.91;1767944;79;21154;-82
2020/12/23 07:26:37;;;;;;;5.22;2.80;;;;;;;1.68;83.77;93263.42;1780270;79;21255;-85
2020/12/23 07:29:09;;;;;;;3.55;2.70;;;;;;;1.72;83.60;93260.83;1759353;79;21668;-80
2020/12/23 07:31:41;;;;;;;42.65;15.72;;;;;;;1.74;83.58;93261.28;1736382;79;21700;-81
2020/12/23 07:34:11;;;;;;;29.02;10.20;;;;;;;1.75;84.05;93272.22;1722947;81;21231;-80
2020/12/23 07:36:40;;;;;;;20.80;9.15;;;;;;;1.75;84.12;93285.05;1721871;82;21167;-78
2020/12/23 07:39:09;;;;;;;13.13;5.95;;;;;;;1.75;84.30;93281.03;1712677;82;21175;-79
2020/12/23 07:41:38;;;;;;;15.23;6.97;;;;;;;1.77;84.21;93278.00;1721115;82;21235;-76
2020/12/23 07:44:10;;;;;;;35.75;14.28;;;;;;;1.78;84.13;93287.06;1687735;83;21637;-79
2020/12/23 07:46:38;;;;;;;6.85;3.90;;;;;;;1.82;84.12;93283.91;1700690;81;21225;-81
2020/12/23 07:49:08;;;;;;;6.90;4.45;;;;;;;1.85;82.39;93281.11;1716598;81;21198;-83
2020/12/23 07:51:38;;;;;;;10.98;5.22;;;;;;;1.87;82.62;93279.63;1778674;80;21253;-82
2020/12/23 07:54:11;;;;;;;5.83;3.58;;;;;;;1.88;83.27;93276.38;1782118;79;21178;-80
2020/12/23 07:56:40;;;;;;;2.95;2.45;;;;;;;1.87;82.48;93277.52;1724009;79;21265;-79
2020/12/23 07:59:10;;;;;;;4.17;3.12;;;;;;;1.88;82.11;93281.74;1724844;81;21193;-84
2020/12/23 08:01:41;;;;;;;2.52;2.30;;;;;;;1.90;82.28;93282.19;1717832;81;21635;-81
2020/12/23 08:04:10;;;;;;;13.93;6.42;;;;;;;1.91;82.22;93281.84;1757678;79;21197;-81
2020/12/23 08:06:38;;;;;;;21.12;7.83;;;;;;;1.94;82.27;93283.84;1794748;78;21202;-81
2020/12/23 08:09:12;;;;;;;25.80;13.70;;;;;;;1.94;83.40;93290.55;1773122;79;21309;-80
2020/12/23 08:11:42;;;;;;;13.10;7.65;;;;;;;1.96;83.96;93288.88;1775880;79;21193;-80
2020/12/23 08:14:11;;;;;;;8.83;4.37;;;;;;;1.98;83.90;93297.91;1775866;79;21272;-78
2020/12/23 08:16:39;;;;;;;5.30;3.90;;;;;;;2.00;84.36;93297.02;1788159;78;21716;-82
2020/12/23 08:19:07;;;;;;;5.50;4.00;;;;;;;2.01;83.37;93299.34;1803463;78;21233;-80
2020/12/23 08:21:35;;;;;;;10.43;5.42;;;;;;;2.07;82.90;93297.17;1778548;79;21580;-81
2020/12/23 08:24:04;;;;;;;5.25;3.70;;;;;;;2.10;83.07;93295.92;1782259;79;21241;-79
2020/12/23 08:26:32;;;;;;;4.30;2.55;;;;;;;2.09;83.19;93293.59;1743359;79;21231;-82
2020/12/23 08:29:00;;;;;;;2.60;2.22;;;;;;;2.08;83.17;93279.98;1706322;80;21250;-79
2020/12/23 08:31:30;;;;;;;2.45;2.25;;;;;;;2.12;83.75;93280.84;1760453;80;21257;-82
2020/12/23 08:34:00;;;;;;;2.33;1.90;;;;;;;2.16;83.95;93275.78;1760275;80;21170;-85
2020/12/23 08:36:31;;;;;;;2.15;1.90;;;;;;;2.20;84.09;93282.58;1735562;80;21270;-80
2020/12/23 08:39:00;;;;;;;6.55;4.17;;;;;;;2.27;84.20;93290.80;1743444;80;21178;-81
2020/12/23 08:41:30;;;;;;;6.05;4.42;;;;;;;2.36;84.12;93300.02;1757686;80;21200;-82
2020/12/23 08:43:58;;;;;;;6.40;4.12;;;;;;;2.43;83.50;93299.63;1766755;79;21241;-83
2020/12/23 08:46:27;;;;;;;7.55;5.15;;;;;;;2.48;83.30;93293.78;1749086;79;21266;-81
2020/12/23 08:48:55;;;;;;;16.40;12.68;;;;;;;2.53;82.94;93288.95;1752278;80;21259;-81
2020/12/23 08:51:25;;;;;;;7.72;5.03;;;;;;;2.60;82.17;93291.03;1726349;81;21261;-79
2020/12/23 08:53:54;;;;;;;17.50;10.65;;;;;;;2.59;81.63;93291.56;1744057;80;21562;-79
2020/12/23 08:56:30;;;;;;;13.00;7.10;;;;;;;2.55;81.65;93288.02;1735570;81;21265;-82
2020/12/23 08:59:04;;;;;;;9.98;7.92;;;;;;;2.54;81.83;93279.77;1749542;80;21289;-82
2020/12/23 09:01:34;;;;;;;17.73;10.30;;;;;;;2.56;81.63;93277.52;1733209;81;21119;-78
2020/12/23 09:04:10;;;;;;;10.70;8.28;;;;;;;2.58;81.42;93267.20;1717880;81;21265;-84
2020/12/23 09:06:44;;;;;;;8.88;4.78;;;;;;;2.61;81.62;93279.93;1764438;80;21305;-83
2020/12/23 09:09:18;;;;;;;10.10;6.80;;;;;;;2.64;81.67;93269.84;1757602;80;21102;-78
2020/12/23 09:11:50;;;;;;;11.77;5.77;;;;;;;2.70;81.30;93278.97;1708412;81;21280;-80
2020/12/23 09:14:37;;;;;;;10.32;5.33;;;;;;;2.72;81.15;93270.78;1696958;82;21235;-81
2020/12/23 09:17:22;;;;;;;27.15;17.77;;;;;;;2.74;81.37;93271.20;1751778;79;21107;-83
2020/12/23 09:20:01;;;;;;;16.90;11.83;;;;;;;2.80;81.17;93256.39;1782274;79;21213;-78
2020/12/23 09:22:38;;;;;;;12.20;7.35;;;;;;;2.83;81.10;93257.03;1786637;78;21233;-79
2020/12/23 09:25:25;;;;;;;12.60;7.15;;;;;;;2.84;80.72;93259.93;1812053;78;22328;-77
2020/12/23 09:27:58;;;;;;;7.97;5.62;;;;;;;2.86;80.76;93259.03;1779577;79;21054;-83
2020/12/23 09:30:42;;;;;;;6.58;4.35;;;;;;;2.88;80.77;93257.33;1781482;79;21569;-77
2020/12/23 09:33:15;;;;;;;7.85;4.70;;;;;;;2.89;80.71;93249.47;1782213;78;21495;-80
2020/12/23 09:35:44;;;;;;;4.92;3.75;;;;;;;2.91;80.25;93236.48;1801970;78;21177;-78
2020/12/23 09:38:27;;;;;;;6.28;4.67;;;;;;;2.88;80.10;93231.81;1798993;78;21191;-80
2020/12/23 09:40:56;;;;;;;5.47;4.40;;;;;;;2.84;80.02;93232.30;1776621;79;21254;-78
2020/12/23 09:43:26;;;;;;;7.47;6.00;;;;;;;2.81;80.04;93232.42;1720353;80;21378;-80
2020/12/23 09:45:56;;;;;;;5.65;4.15;;;;;;;2.78;79.81;93237.15;1772853;79;21246;-79
2020/12/23 09:48:26;;;;;;;4.85;3.67;;;;;;;2.75;80.07;93225.02;1805635;78;21672;-79
2020/12/23 09:50:54;;;;;;;6.58;4.37;;;;;;;2.74;80.17;93227.47;1789431;78;22467;-83
2020/12/23 09:53:22;;;;;;;6.37;3.90;;;;;;;2.74;80.29;93209.44;1774251;79;21245;-82
2020/12/23 09:55:52;;;;;;;6.22;4.78;;;;;;;2.76;80.42;93204.52;1773585;78;21485;-79
2020/12/23 09:58:20;;;;;;;5.00;3.92;;;;;;;2.79;80.34;93200.36;1812050;78;21194;-79
2020/12/23 10:00:49;;;;;;;4.97;4.12;;;;;;;2.81;80.32;93224.94;1737114;80;21254;-80
2020/12/23 10:03:17;;;;;;;9.25;6.42;;;;;;;2.79;80.18;93228.55;1781476;79;21741;-79
2020/12/23 10:05:47;;;;;;;13.15;7.50;;;;;;;2.72;80.11;93208.26;1755380;79;21102;-80
2020/12/23 10:08:15;;;;;;;15.28;8.90;;;;;;;2.63;80.24;93201.18;1731500;81;21678;-78
2020/12/23 10:10:43;;;;;;;16.95;10.23;;;;;;;2.57;80.47;93203.13;1732500;80;21273;-77
2020/12/23 10:13:12;;;;;;;12.73;7.20;;;;;;;2.53;80.79;93215.13;1763257;79;21213;-78
2020/12/23 10:15:40;;;;;;;14.53;8.15;;;;;;;2.54;80.76;93211.31;1753596;79;21275;-79
2020/12/23 10:18:08;;;;;;;12.88;7.97;;;;;;;2.55;80.76;93205.38;1784971;78;21242;-79
2020/12/23 10:20:36;;;;;;;9.75;6.78;;;;;;;2.53;80.79;93192.31;1743339;79;21200;-80
2020/12/23 10:23:05;;;;;;;10.35;6.70;;;;;;;2.54;80.86;93197.12;1817086;78;21150;-77
2020/12/23 10:25:34;;;;;;;10.45;6.53;;;;;;;2.57;80.96;93196.42;1815684;78;21735;-79
2020/12/23 10:28:02;;;;;;;10.53;6.55;;;;;;;2.59;81.12;93196.27;1774981;79;21387;-78
2020/12/23 10:30:31;;;;;;;12.93;6.22;;;;;;;2.61;81.19;93198.62;1781938;78;21684;-79
2020/12/23 10:33:01;;;;;;;8.78;5.50;;;;;;;2.60;81.49;93195.73;1731136;79;21931;-85
2020/12/23 10:35:29;;;;;;;5.92;4.50;;;;;;;2.60;81.35;93193.05;1732816;79;21204;-83
2020/12/23 10:37:57;;;;;;;5.50;4.00;;;;;;;2.62;81.45;93176.01;1735734;79;23063;-80
2020/12/23 10:40:25;;;;;;;5.83;4.47;;;;;;;2.64;81.49;93179.91;1761020;80;21643;-81
2020/12/23 10:42:53;;;;;;;21.40;11.20;;;;;;;2.68;81.56;93178.64;1788883;78;21241;-79
2020/12/23 10:45:21;;;;;;;11.57;7.50;;;;;;;2.70;81.64;93171.00;1773104;78;21609;-80
2020/12/23 10:47:49;;;;;;;70.50;43.50;;;;;;;2.67;81.65;93171.70;1744807;80;21205;-80
2020/12/23 10:50:18;;;;;;;101.00;61.35;;;;;;;2.66;81.80;93167.47;1751467;79;21259;-77
2020/12/23 10:52:46;;;;;;;35.80;21.87;;;;;;;2.68;82.04;93160.62;1752365;79;21437;-80
2020/12/23 10:55:14;;;;;;;12.35;7.60;;;;;;;2.69;82.09;93156.03;1764196;79;21169;-77
2020/12/23 10:57:43;;;;;;;9.85;6.45;;;;;;;2.66;82.37;93160.19;1785535;78;21171;-81
2020/12/23 11:00:11;;;;;;;52.55;32.00;;;;;;;2.60;82.42;93146.84;1764291;78;21266;-77
2020/12/23 11:02:39;;;;;;;44.23;24.87;;;;;;;2.57;82.67;93140.05;1768365;78;21214;-77
2020/12/23 11:05:07;;;;;;;201.58;107.10;;;;;;;2.56;82.66;93138.50;1788590;78;21299;-78
2020/12/23 11:07:35;;;;;;;122.80;63.78;;;;;;;2.53;82.73;93133.27;1807474;78;21770;-79
2020/12/23 11:10:05;;;;;;;17.73;11.38;;;;;;;2.51;83.01;93138.19;1787673;78;21170;-78
2020/12/23 11:12:34;;;;;;;12.00;7.37;;;;;;;2.50;83.41;93137.22;1790467;78;21098;-78
2020/12/23 11:15:02;;;;;;;138.57;69.25;;;;;;;2.47;83.60;93129.29;1780968;79;21249;-80
2020/12/23 11:17:31;;;;;;;33.85;18.73;;;;;;;2.41;83.64;93138.76;1748510;80;21251;-79
2020/12/23 11:19:59;;;;;;;19.15;11.50;;;;;;;2.36;83.80;93134.98;1765615;78;21650;-79
2020/12/23 11:22:27;;;;;;;69.07;35.33;;;;;;;2.33;83.93;93133.00;1777783;79;21202;-79
2020/12/23 11:24:58;;;;;;;50.55;28.38;;;;;;;2.29;84.08;93128.12;1779308;79;21245;-79
2020/12/23 11:27:26;;;;;;;41.77;21.82;;;;;;;2.25;84.25;93130.72;1774803;79;21222;-80
2020/12/23 11:29:54;;;;;;;29.30;18.25;;;;;;;2.23;84.26;93122.27;1785324;78;22070;-80
2020/12/23 11:32:22;;;;;;;18.90;10.58;;;;;;;2.19;84.40;93123.52;1750201;80;21262;-81
2020/12/23 11:34:52;;;;;;;14.65;10.38;;;;;;;2.21;84.43;93124.50;1815372;78;21141;-78
2020/12/23 11:37:20;;;;;;;14.63;9.35;;;;;;;2.24;84.52;93129.17;1726791;81;21592;-78
2020/12/23 11:39:48;;;;;;;12.13;8.48;;;;;;;2.27;84.54;93133.07;1759381;79;21096;-77
2020/12/23 11:42:17;;;;;;;12.55;7.92;;;;;;;2.29;84.66;93131.58;1746710;80;22322;-82
2020/12/23 11:44:45;;;;;;;10.25;7.17;;;;;;;2.34;84.64;93127.86;1789630;78;21170;-80
2020/12/23 11:47:13;;;;;;;12.40;7.45;;;;;;;2.37;84.65;93132.51;1810309;78;21035;-81
2020/12/23 11:49:41;;;;;;;10.10;7.60;;;;;;;2.34;84.83;93131.33;1757316;79;21628;-79
2020/12/23 11:52:10;;;;;;;11.55;8.68;;;;;;;2.33;85.04;93125.75;1769414;78;21170;-78